Time;durP1;ratioP1;P1;durP2;ratioP2;P2;SDS_P1;SDS_P2;PMS_P1;PMS_P2;Temp;Humidity;BMP_temperature;BMP_pressure;BME280_temperature;BME280_humidity;BME280_pressure;Samples;Min_cycle;Max_cycle;Signal;HPM_P1;HPM_P2
2022/09/23 00:01:21;;;;;;;13.88;6.70;;;;;;;12.51;76.41;101673.94;5072720;28;20045;-51
2022/09/23 00:03:49;;;;;;;10.57;5.78;;;;;;;12.50;75.88;101674.19;5068108;28;20449;-51
2022/09/23 00:06:21;;;;;;;10.88;5.80;;;;;;;12.52;75.77;101674.78;5068811;28;20066;-49
2022/09/23 00:08:50;;;;;;;11.25;5.80;;;;;;;12.50;76.21;101674.19;5072651;28;20032;-49
2022/09/23 00:11:19;;;;;;;11.38;5.82;;;;;;;12.48;76.62;101679.94;5056233;28;20070;-50
2022/09/23 00:13:49;;;;;;;8.18;5.72;;;;;;;12.48;76.17;101676.38;5073434;28;20118;-54
2022/09/23 00:16:23;;;;;;;9.93;6.05;;;;;;;12.48;76.50;101668.16;5069108;28;20035;-52
2022/09/23 00:18:51;;;;;;;10.82;5.75;;;;;;;12.44;75.76;101676.06;5072752;28;20041;-49
2022/09/23 00:21:20;;;;;;;11.38;5.65;;;;;;;12.44;75.74;101669.78;5071881;28;20050;-51
2022/09/23 00:23:48;;;;;;;10.05;5.65;;;;;;;12.45;76.39;101665.97;5073493;28;20044;-52
2022/09/23 00:26:17;;;;;;;8.93;6.07;;;;;;;12.45;76.05;101663.22;5058761;28;20052;-53
2022/09/23 00:28:46;;;;;;;9.80;6.00;;;;;;;12.44;76.20;101656.94;5070747;28;20045;-52
2022/09/23 00:31:19;;;;;;;10.02;5.70;;;;;;;12.41;76.67;101659.34;5064991;28;20085;-51
2022/09/23 00:33:51;;;;;;;9.10;5.65;;;;;;;12.40;76.13;101663.19;5061711;28;20048;-51
2022/09/23 00:36:19;;;;;;;12.32;6.22;;;;;;;12.38;77.02;101660.69;5073527;28;20045;-51
2022/09/23 00:38:47;;;;;;;9.35;6.00;;;;;;;12.36;77.00;101658.25;5073984;28;20085;-54
2022/09/23 00:41:15;;;;;;;10.45;5.78;;;;;;;12.35;76.33;101659.31;5062501;28;20419;-53
2022/09/23 00:43:49;;;;;;;10.52;5.90;;;;;;;12.39;76.48;101658.78;5056865;28;20052;-51
2022/09/23 00:46:29;;;;;;;15.05;6.38;;;;;;;12.41;76.43;101656.63;5073295;28;20048;-49
2022/09/23 00:49:27;;;;;;;10.73;6.00;;;;;;;12.40;76.83;101646.78;5073190;28;20094;-51
2022/09/23 00:51:59;;;;;;;9.02;6.13;;;;;;;12.38;77.24;101643.47;5072568;28;20168;-53
2022/09/23 00:54:27;;;;;;;11.60;5.93;;;;;;;12.35;77.67;101651.09;5059640;28;20033;-54
2022/09/23 00:56:56;;;;;;;9.80;5.88;;;;;;;12.32;77.21;101648.91;5072753;28;20047;-55
2022/09/23 00:59:25;;;;;;;12.23;5.90;;;;;;;12.30;77.43;101642.06;5056210;28;20029;-53
2022/09/23 01:01:54;;;;;;;13.65;5.95;;;;;;;12.30;77.02;101642.88;5071875;28;20044;-54
2022/09/23 01:04:23;;;;;;;9.75;5.97;;;;;;;12.27;77.27;101642.59;5070500;28;20037;-51
2022/09/23 01:06:50;;;;;;;9.80;5.97;;;;;;;12.25;77.72;101645.56;5043214;28;20051;-52
2022/09/23 01:09:18;;;;;;;14.55;5.88;;;;;;;12.28;78.10;101630.56;5054891;28;20047;-50
2022/09/23 01:12:10;;;;;;;10.10;6.03;;;;;;;12.31;77.01;101644.53;5071708;28;20044;-52
2022/09/23 01:14:50;;;;;;;12.75;6.72;;;;;;;12.29;77.29;101640.38;5071409;28;20053;-50
2022/09/23 01:17:43;;;;;;;11.98;6.05;;;;;;;12.28;78.27;101636.03;5065928;28;20044;-52
2022/09/23 01:20:26;;;;;;;10.85;6.65;;;;;;;12.27;77.37;101635.19;5060889;28;20040;-51
2022/09/23 01:23:16;;;;;;;11.40;5.90;;;;;;;12.22;77.67;101631.56;5072425;28;20043;-53
2022/09/23 01:25:53;;;;;;;11.15;6.07;;;;;;;12.20;77.89;101626.41;5072955;28;20049;-50
2022/09/23 01:29:11;;;;;;;13.70;6.35;;;;;;;12.19;77.91;101632.91;5071463;28;20102;-51
2022/09/23 01:32:01;;;;;;;13.13;6.43;;;;;;;12.19;78.03;101632.09;5063106;28;20046;-55
2022/09/23 01:34:39;;;;;;;12.00;6.47;;;;;;;12.15;78.50;101642.75;5057969;28;20552;-53
2022/09/23 01:37:32;;;;;;;11.40;6.20;;;;;;;12.13;79.12;101631.25;5062773;28;20044;-55
2022/09/23 01:40:10;;;;;;;9.80;6.20;;;;;;;12.15;78.90;101631.81;5062107;28;20040;-52
2022/09/23 01:43:07;;;;;;;10.65;6.30;;;;;;;12.19;79.21;101623.91;5074124;28;20045;-51
2022/09/23 01:45:53;;;;;;;13.38;7.22;;;;;;;12.21;79.17;101627.22;5059666;28;20136;-49
2022/09/23 01:48:45;;;;;;;12.45;6.25;;;;;;;12.22;78.95;101615.19;5057948;28;20500;-53
2022/09/23 01:51:23;;;;;;;12.63;6.38;;;;;;;12.19;78.86;101613.78;5066997;28;20051;-50
2022/09/23 01:54:45;;;;;;;11.63;6.43;;;;;;;12.11;78.41;101622.47;5061354;28;20410;-52
2022/09/23 01:57:39;;;;;;;12.80;5.90;;;;;;;12.08;79.42;101614.81;5014398;28;20045;-54
2022/09/23 02:00:11;;;;;;;10.70;6.20;;;;;;;12.02;79.33;101621.28;5068906;28;20045;-55
2022/09/23 02:03:14;;;;;;;11.90;6.10;;;;;;;11.99;79.64;101616.34;5061787;28;20053;-52
2022/09/23 02:05:59;;;;;;;10.27;6.07;;;;;;;11.98;80.34;101617.41;5075258;28;20040;-50
2022/09/23 02:08:33;;;;;;;12.60;6.30;;;;;;;11.90;80.44;101616.78;5075180;28;20036;-53
2022/09/23 02:11:08;;;;;;;11.30;6.53;;;;;;;11.83;80.42;101616.13;5062030;28;20037;-52
2022/09/23 02:13:53;;;;;;;12.05;6.13;;;;;;;11.78;80.94;101607.09;5057108;28;20047;-54
2022/09/23 02:16:38;;;;;;;10.40;5.70;;;;;;;11.77;81.37;101606.25;5069189;28;20048;-51
2022/09/23 02:19:46;;;;;;;11.23;6.20;;;;;;;11.81;82.31;101612.03;5072917;28;20045;-54
2022/09/23 02:22:16;;;;;;;13.10;5.93;;;;;;;11.84;81.85;101606.06;5072513;28;20575;-52
2022/09/23 02:24:43;;;;;;;10.70;6.05;;;;;;;11.83;81.93;101610.69;5057893;28;20043;-50
2022/09/23 02:27:31;;;;;;;13.60;6.18;;;;;;;11.81;82.11;101610.13;5054233;28;20048;-53
2022/09/23 02:30:19;;;;;;;12.05;6.07;;;;;;;11.81;82.08;101599.22;5073388;28;20048;-53
2022/09/23 02:33:10;;;;;;;9.43;5.70;;;;;;;11.83;82.61;101594.31;5069829;28;20040;-51
2022/09/23 02:35:59;;;;;;;9.63;5.60;;;;;;;11.87;82.46;101584.56;5063054;28;20045;-51
2022/09/23 02:38:36;;;;;;;11.88;5.85;;;;;;;11.85;82.47;101592.13;5073738;28;20044;-50
2022/09/23 02:41:25;;;;;;;9.43;6.15;;;;;;;11.88;82.05;101588.94;5079146;28;20051;-49
2022/09/23 02:43:58;;;;;;;9.82;5.85;;;;;;;11.84;82.24;101582.31;5061397;28;20051;-52
2022/09/23 02:46:28;;;;;;;10.70;5.97;;;;;;;11.83;82.51;101583.38;5075578;28;20040;-49
2022/09/23 02:49:03;;;;;;;12.23;5.80;;;;;;;11.82;82.55;101580.91;5073125;28;20066;-52
2022/09/23 02:51:36;;;;;;;11.52;5.80;;;;;;;11.82;83.00;101578.19;5057492;28;20043;-51
2022/09/23 02:54:06;;;;;;;11.65;6.22;;;;;;;11.77;83.58;101573.50;5062327;28;20048;-51
2022/09/23 02:56:36;;;;;;;11.68;6.18;;;;;;;11.78;83.28;101569.69;5074345;28;20467;-52
2022/09/23 02:59:04;;;;;;;11.75;6.53;;;;;;;11.81;83.22;101571.06;5075137;28;20045;-52
2022/09/23 03:01:32;;;;;;;11.23;6.10;;;;;;;11.79;82.94;101567.78;5073290;28;20055;-54
2022/09/23 03:04:17;;;;;;;9.82;5.93;;;;;;;11.76;83.71;101560.94;5073257;28;20055;-55
2022/09/23 03:07:19;;;;;;;11.05;6.15;;;;;;;11.74;83.01;101557.66;5074347;28;20049;-51
2022/09/23 03:09:51;;;;;;;10.40;5.97;;;;;;;11.75;83.79;101553.81;5060967;28;20126;-50
2022/09/23 03:12:40;;;;;;;10.20;6.15;;;;;;;11.74;83.38;101557.66;5073543;28;20402;-52
2022/09/23 03:15:28;;;;;;;12.40;6.20;;;;;;;11.72;83.67;101549.69;5067160;28;20059;-53
2022/09/23 03:18:20;;;;;;;14.65;8.48;;;;;;;11.73;84.02;101545.06;5062060;28;20041;-54
2022/09/23 03:20:56;;;;;;;15.50;9.57;;;;;;;11.75;83.87;101556.53;5056890;28;20051;-54
2022/09/23 03:23:30;;;;;;;11.10;6.40;;;;;;;11.73;83.66;101545.88;5073442;28;20514;-55
2022/09/23 03:26:01;;;;;;;16.38;9.90;;;;;;;11.69;84.06;101549.41;5073647;28;20406;-52
2022/09/23 03:28:29;;;;;;;11.13;6.43;;;;;;;11.67;84.14;101552.38;5074874;28;20056;-54
2022/09/23 03:30:59;;;;;;;12.38;6.35;;;;;;;11.66;84.71;101549.91;5074569;28;20044;-50
2022/09/23 03:33:27;;;;;;;17.00;9.35;;;;;;;11.65;84.90;101543.63;5069501;28;20051;-51
2022/09/23 03:39:07;;;;;;;13.38;7.97;;;;;;;11.72;85.19;101540.69;5066170;28;20043;-51
2022/09/23 03:41:44;;;;;;;13.82;7.20;;;;;;;11.76;84.20;101532.78;5058815;28;20045;-53
2022/09/23 03:44:12;;;;;;;13.93;8.35;;;;;;;11.74;84.33;101549.44;5073137;28;20058;-52
2022/09/23 03:46:48;;;;;;;13.73;6.85;;;;;;;11.71;84.23;101537.16;5056513;28;20529;-51
2022/09/23 03:49:16;;;;;;;;;;;;;;;11.68;83.76;101531.38;5071706;28;20045;-50
2022/09/23 03:51:44;;;;;;;10.60;6.50;;;;;;;11.67;84.42;101536.00;5071106;28;20390;-50
2022/09/23 03:54:12;;;;;;;11.52;6.00;;;;;;;11.68;83.96;101531.38;5072964;28;20051;-55
2022/09/23 03:56:40;;;;;;;16.23;7.72;;;;;;;11.66;84.69;101538.97;5074260;28;20052;-51
2022/09/23 03:59:07;;;;;;;10.45;6.78;;;;;;;11.64;84.39;101530.22;5072396;28;20041;-52
2022/09/23 04:01:35;;;;;;;13.80;6.78;;;;;;;11.64;84.30;101530.22;5062484;28;20044;-51
2022/09/23 04:04:03;;;;;;;12.48;6.88;;;;;;;11.65;83.96;101534.63;5065478;28;20052;-51
2022/09/23 04:06:31;;;;;;;10.57;5.82;;;;;;;11.63;84.58;101525.84;5073641;28;20568;-52
2022/09/23 04:09:00;;;;;;;12.95;6.38;;;;;;;11.58;83.80;101521.16;5073595;28;20045;-52
2022/09/23 04:11:28;;;;;;;10.75;6.13;;;;;;;11.51;84.20;101528.72;5072007;28;20058;-51
2022/09/23 04:13:56;;;;;;;10.07;6.38;;;;;;;11.41;84.50;101529.44;5067639;28;20098;-53
2022/09/23 04:16:24;;;;;;;12.38;6.38;;;;;;;11.36;85.41;101528.59;5064173;28;20041;-52
2022/09/23 04:18:52;;;;;;;10.85;6.55;;;;;;;11.37;85.63;101530.22;5069219;28;20086;-52
2022/09/23 04:21:20;;;;;;;12.57;6.30;;;;;;;11.39;86.12;101528.88;5063650;28;20037;-50
2022/09/23 04:23:47;;;;;;;14.38;5.85;;;;;;;11.44;86.15;101530.84;5073623;28;20394;-53
2022/09/23 04:26:15;;;;;;;12.60;7.03;;;;;;;11.46;85.92;101534.97;5068335;28;20043;-53
2022/09/23 04:28:43;;;;;;;11.90;6.88;;;;;;;11.47;85.39;101533.91;5071592;28;20044;-51
2022/09/23 04:31:10;;;;;;;11.10;6.18;;;;;;;11.46;85.43;101534.97;5073277;28;20028;-51
2022/09/23 04:33:38;;;;;;;11.48;6.78;;;;;;;11.44;85.23;101537.13;5066414;28;20037;-53
2022/09/23 04:36:06;;;;;;;10.70;6.07;;;;;;;11.46;85.63;101534.13;5066201;28;20105;-51
2022/09/23 04:38:34;;;;;;;10.60;6.20;;;;;;;11.44;85.43;101537.13;5053585;28;20041;-52
2022/09/23 04:41:02;;;;;;;10.05;5.90;;;;;;;11.45;85.82;101527.06;5071515;28;20117;-49
2022/09/23 04:43:29;;;;;;;10.65;6.35;;;;;;;11.45;85.86;101521.59;5072628;28;20032;-53
2022/09/23 04:46:02;;;;;;;11.63;6.68;;;;;;;11.44;85.62;101528.94;5072650;28;20071;-53
2022/09/23 04:48:30;;;;;;;12.75;6.85;;;;;;;11.44;85.74;101531.66;5072907;28;20421;-52
2022/09/23 04:51:05;;;;;;;11.05;5.95;;;;;;;11.46;86.23;101524.03;5071311;28;20036;-53
2022/09/23 04:53:36;;;;;;;11.70;6.18;;;;;;;11.45;85.33;101527.88;5071904;28;20051;-54
2022/09/23 04:56:14;;;;;;;10.27;6.00;;;;;;;11.44;85.92;101520.75;5071974;28;20045;-50
2022/09/23 04:58:42;;;;;;;13.15;6.63;;;;;;;11.42;86.00;101525.63;5073863;28;20086;-54
2022/09/23 05:01:19;;;;;;;15.50;6.22;;;;;;;11.32;86.40;101528.25;5070899;28;20499;-53
2022/09/23 05:03:46;;;;;;;12.52;6.28;;;;;;;11.30;86.82;101519.50;5068191;28;20051;-55
2022/09/23 05:06:14;;;;;;;12.38;6.72;;;;;;;11.29;86.88;101526.03;5060885;28;20052;-53
2022/09/23 05:08:48;;;;;;;11.02;7.18;;;;;;;11.27;87.04;101528.19;5071812;28;20040;-53
2022/09/23 05:11:17;;;;;;;15.10;6.55;;;;;;;11.23;86.70;101519.72;5034925;28;20041;-55
2022/09/23 05:13:48;;;;;;;12.07;6.38;;;;;;;11.21;86.79;101526.50;5070006;28;20056;-53
2022/09/23 05:16:16;;;;;;;8.80;6.05;;;;;;;11.24;86.94;101520.53;5068181;28;20041;-53
2022/09/23 05:18:45;;;;;;;13.27;5.70;;;;;;;11.30;86.52;101519.50;5069730;28;20040;-52
2022/09/23 05:21:18;;;;;;;9.75;5.90;;;;;;;11.32;85.85;101528.25;5071794;28;20828;-53
2022/09/23 05:23:53;;;;;;;13.00;6.13;;;;;;;11.32;86.08;101522.78;5065737;28;20117;-52
2022/09/23 05:26:26;;;;;;;9.65;6.13;;;;;;;11.32;86.23;101530.97;5071555;28;20103;-55
2022/09/23 05:28:54;;;;;;;10.35;6.03;;;;;;;11.34;85.89;101528.00;5070209;28;20041;-53
2022/09/23 05:31:24;;;;;;;10.30;5.60;;;;;;;11.35;85.82;101522.28;5062709;28;20049;-51
2022/09/23 05:33:56;;;;;;;12.43;6.43;;;;;;;11.36;86.37;101532.13;5063691;28;20048;-50
2022/09/23 05:36:24;;;;;;;12.77;5.80;;;;;;;11.38;85.75;101535.44;5064408;28;20067;-53
2022/09/23 05:38:53;;;;;;;11.32;5.78;;;;;;;11.40;85.34;101530.53;5072427;28;20044;-55
2022/09/23 05:41:21;;;;;;;13.05;6.10;;;;;;;11.44;85.07;101534.38;5069136;28;20048;-51
2022/09/23 05:43:50;;;;;;;10.38;5.38;;;;;;;11.46;84.70;101534.13;5072382;28;20036;-53
2022/09/23 05:46:26;;;;;;;10.38;5.70;;;;;;;11.45;84.54;101532.50;5071003;28;20052;-52
2022/09/23 05:48:56;;;;;;;10.50;6.03;;;;;;;11.45;84.91;101538.78;5070794;28;20456;-54
2022/09/23 05:51:29;;;;;;;9.43;5.63;;;;;;;11.48;85.20;101538.25;4370036;28;10000583;-53
2022/09/23 05:53:59;;;;;;;11.82;6.18;;;;;;;11.48;85.29;101543.72;5053552;28;20109;-50
2022/09/23 05:56:28;;;;;;;9.65;5.90;;;;;;;11.48;84.41;101538.25;5067636;28;20652;-52
2022/09/23 05:58:58;;;;;;;14.13;5.43;;;;;;;11.49;84.58;101539.91;5068674;28;20498;-50
2022/09/23 06:01:30;;;;;;;11.50;5.82;;;;;;;11.49;84.93;101534.44;5060761;28;20534;-53
2022/09/23 06:03:59;;;;;;;13.18;5.60;;;;;;;11.51;84.87;101543.19;5065377;28;20040;-53
2022/09/23 06:06:38;;;;;;;11.70;5.65;;;;;;;11.54;84.40;101535.59;5060014;28;20097;-51
2022/09/23 06:09:08;;;;;;;12.02;5.68;;;;;;;11.52;84.78;101542.13;5067056;28;20495;-50
2022/09/23 06:11:36;;;;;;;13.85;5.95;;;;;;;11.53;84.80;101545.69;5051083;28;20525;-52
2022/09/23 06:14:04;;;;;;;10.57;5.68;;;;;;;11.55;84.35;101532.59;5067183;28;20070;-49
2022/09/23 06:16:33;;;;;;;10.77;6.10;;;;;;;11.57;83.98;101535.06;5065363;28;20059;-51
2022/09/23 06:19:04;;;;;;;17.15;6.38;;;;;;;11.55;84.51;101534.53;5049406;28;20079;-50
2022/09/23 06:21:35;;;;;;;15.13;6.53;;;;;;;11.56;84.31;101534.25;5068438;28;20040;-52
2022/09/23 06:24:04;;;;;;;10.70;5.90;;;;;;;11.58;84.21;101520.34;5069870;28;20039;-52
2022/09/23 06:26:36;;;;;;;9.73;5.55;;;;;;;11.58;83.56;101520.34;5070272;28;20032;-53
2022/09/23 06:29:09;;;;;;;9.35;5.60;;;;;;;11.58;84.11;101523.06;5070719;28;20048;-49
2022/09/23 06:31:37;;;;;;;11.95;5.75;;;;;;;11.59;84.14;101527.44;5070920;28;20048;-51
2022/09/23 06:34:04;;;;;;;10.48;5.35;;;;;;;11.59;83.66;101521.97;5062319;28;20052;-50
2022/09/23 06:36:41;;;;;;;9.65;5.80;;;;;;;11.61;83.85;101525.28;5071534;28;20040;-49
2022/09/23 06:39:13;;;;;;;9.38;5.63;;;;;;;11.63;83.64;101531.31;5052358;28;20048;-52
2022/09/23 06:41:41;;;;;;;11.90;5.95;;;;;;;11.65;84.03;101529.16;5050704;28;20074;-51
2022/09/23 06:44:12;;;;;;;10.68;6.13;;;;;;;11.65;83.50;101526.44;5050042;28;20044;-52
2022/09/23 06:46:40;;;;;;;14.25;6.15;;;;;;;11.66;84.27;101522.59;5071362;28;20036;-53
2022/09/23 06:49:09;;;;;;;11.82;6.43;;;;;;;11.66;83.97;101522.59;5071492;28;20457;-52
2022/09/23 06:51:37;;;;;;;10.45;6.05;;;;;;;11.65;83.64;101510.06;5074711;28;20052;-50
2022/09/23 06:54:04;;;;;;;9.68;5.25;;;;;;;11.64;83.73;101513.84;5074985;28;20406;-49
2022/09/23 06:56:32;;;;;;;9.48;5.38;;;;;;;11.64;83.41;101519.31;5069336;28;20042;-52
2022/09/23 06:59:08;;;;;;;28.88;6.13;;;;;;;11.65;83.69;101513.59;5071597;28;20047;-49
2022/09/23 07:01:36;;;;;;;8.98;5.50;;;;;;;11.67;83.69;101518.81;5057620;28;20532;-49
2022/09/23 07:04:06;;;;;;;11.85;5.32;;;;;;;11.67;83.60;101521.53;5075075;28;20384;-50
2022/09/23 07:06:34;;;;;;;14.30;6.10;;;;;;;11.67;83.34;101519.63;5074943;28;20045;-50
2022/09/23 07:09:02;;;;;;;11.18;5.70;;;;;;;11.67;83.49;101524.28;5067956;28;20052;-55
2022/09/23 07:11:30;;;;;;;11.27;5.88;;;;;;;11.66;83.86;101520.69;5064182;28;20491;-57
2022/09/23 07:13:57;;;;;;;14.30;6.30;;;;;;;11.66;83.28;101520.69;5072862;28;20061;-53
2022/09/23 07:16:25;;;;;;;11.75;6.00;;;;;;;11.69;84.26;101520.19;5056552;28;20044;-56
2022/09/23 07:18:53;;;;;;;10.63;5.75;;;;;;;11.73;83.34;101528.69;5074745;28;20406;-54
2022/09/23 07:21:21;;;;;;;10.15;6.00;;;;;;;11.74;83.79;101522.16;5073968;28;20043;-52
2022/09/23 07:23:50;;;;;;;9.77;5.63;;;;;;;11.76;83.18;101528.19;5072277;28;20033;-53
2022/09/23 07:26:19;;;;;;;13.68;5.80;;;;;;;11.77;83.84;101527.09;5065162;28;20514;-55
2022/09/23 07:28:46;;;;;;;13.77;6.22;;;;;;;11.79;83.75;101524.94;5074731;28;20510;-52
2022/09/23 07:31:16;;;;;;;82.38;9.57;;;;;;;11.78;84.52;101526.00;5066000;28;20040;-57
2022/09/23 07:33:59;;;;;;;34.50;7.45;;;;;;;11.78;84.41;101520.53;5074447;28;20040;-56
2022/09/23 07:36:30;;;;;;;15.05;6.50;;;;;;;11.79;84.18;101522.19;5071414;28;20490;-54
2022/09/23 07:39:02;;;;;;;17.77;6.32;;;;;;;11.80;84.67;101523.84;5064876;28;20396;-54
2022/09/23 07:41:31;;;;;;;12.00;6.10;;;;;;;11.79;84.90;101516.75;5069655;28;20398;-51
2022/09/23 07:43:59;;;;;;;12.40;6.45;;;;;;;11.80;84.83;101515.63;5068276;28;20048;-52
2022/09/23 07:46:29;;;;;;;10.65;6.10;;;;;;;11.84;84.54;101518.69;5067113;28;20048;-57
2022/09/23 07:48:57;;;;;;;12.02;6.07;;;;;;;11.85;84.61;101515.69;5081070;28;20056;-54
2022/09/23 07:51:28;;;;;;;9.50;5.38;;;;;;;11.89;84.85;101519.59;5057857;28;20072;-53
2022/09/23 07:54:06;;;;;;;10.75;5.90;;;;;;;11.93;84.83;101523.44;5067823;28;20041;-54
2022/09/23 07:56:34;;;;;;;10.10;5.93;;;;;;;11.97;84.16;101522.91;5057001;28;20048;-53
2022/09/23 07:59:03;;;;;;;9.48;5.57;;;;;;;11.99;84.85;101515.28;5054568;28;20044;-52
2022/09/23 08:01:40;;;;;;;9.27;5.80;;;;;;;12.04;84.69;101523.53;5061055;28;20052;-52
2022/09/23 08:04:16;;;;;;;10.60;6.45;;;;;;;12.06;84.87;101527.66;5057973;28;20037;-53
2022/09/23 08:06:46;;;;;;;9.43;5.50;;;;;;;12.10;85.14;101517.84;5070639;28;20085;-55
2022/09/23 08:09:15;;;;;;;8.52;5.43;;;;;;;12.13;84.33;101528.25;5054023;28;20052;-52
2022/09/23 08:11:43;;;;;;;10.68;5.60;;;;;;;12.15;84.38;101526.09;5060140;28;20118;-52
2022/09/23 08:14:12;;;;;;;11.70;5.85;;;;;;;12.18;84.43;101527.47;5072970;28;20140;-51
2022/09/23 08:16:41;;;;;;;11.32;5.60;;;;;;;12.21;83.99;101528.84;5073958;28;20037;-53
2022/09/23 08:19:08;;;;;;;10.40;5.50;;;;;;;12.23;84.27;101535.69;5074045;28;20551;-56
2022/09/23 08:21:38;;;;;;;9.20;5.15;;;;;;;12.25;83.34;101525.34;5058935;28;20053;-52
2022/09/23 08:24:13;;;;;;;11.27;5.45;;;;;;;12.28;83.70;101530.28;5055411;28;20392;-52
2022/09/23 08:26:42;;;;;;;13.02;5.55;;;;;;;12.29;84.08;101534.66;5070537;28;20043;-55
2022/09/23 08:29:12;;;;;;;10.10;5.28;;;;;;;12.33;83.61;101521.28;5066216;28;20059;-57
2022/09/23 08:31:40;;;;;;;14.52;6.38;;;;;;;12.36;83.88;101526.22;5068602;28;20040;-55
2022/09/23 08:34:08;;;;;;;12.77;6.63;;;;;;;12.39;83.98;101535.81;5066826;28;20487;-57
2022/09/23 08:36:36;;;;;;;11.45;6.38;;;;;;;12.39;83.58;101530.34;5073319;28;20491;-54
2022/09/23 08:39:05;;;;;;;12.98;6.53;;;;;;;12.39;84.32;101530.34;5061678;28;20410;-55
2022/09/23 08:41:51;;;;;;;11.73;6.65;;;;;;;12.41;83.89;101533.63;5067484;28;20044;-53
2022/09/23 08:44:48;;;;;;;12.60;6.20;;;;;;;12.45;84.10;101526.56;5068039;28;20094;-54
2022/09/23 08:47:19;;;;;;;12.63;5.90;;;;;;;12.47;83.99;101527.94;5059560;28;20521;-57
2022/09/23 08:49:52;;;;;;;9.80;5.40;;;;;;;12.51;83.46;101533.72;5073189;28;20050;-57
2022/09/23 08:52:38;;;;;;;11.75;5.93;;;;;;;12.53;83.44;101537.00;5061025;28;20028;-58
2022/09/23 08:55:08;;;;;;;;;;;;;;;12.57;83.20;101532.66;5058305;28;20048;-55
2022/09/23 08:58:25;;;;;;;11.50;6.00;;;;;;;12.61;83.21;101533.78;5071912;28;20023;-55
2022/09/23 09:01:16;;;;;;;10.27;5.72;;;;;;;12.65;83.37;101529.44;5039083;28;20522;-55
2022/09/23 09:03:51;;;;;;;12.23;6.13;;;;;;;12.69;84.13;101527.81;5070612;28;20045;-57
2022/09/23 09:06:42;;;;;;;11.18;6.40;;;;;;;12.73;84.07;101530.84;5045744;28;20086;-57
2022/09/23 09:09:27;;;;;;;11.95;6.40;;;;;;;12.76;84.09;101524.84;5072373;28;20036;-54
2022/09/23 09:12:11;;;;;;;11.23;6.13;;;;;;;12.78;83.40;101520.75;5072081;28;20046;-54
2022/09/23 09:14:51;;;;;;;11.65;6.22;;;;;;;12.81;83.40;101519.38;5069013;28;20049;-56
2022/09/23 09:17:35;;;;;;;10.95;5.88;;;;;;;12.84;83.43;101516.13;5074270;28;20552;-56
2022/09/23 09:20:23;;;;;;;17.33;6.53;;;;;;;12.88;83.42;101519.16;5072024;28;20052;-53
2022/09/23 09:22:58;;;;;;;12.73;6.32;;;;;;;12.91;82.77;101508.50;5071583;28;20101;-57
2022/09/23 09:25:43;;;;;;;11.82;5.68;;;;;;;12.96;82.54;101513.16;5069645;28;20056;-63
2022/09/23 09:28:29;;;;;;;12.23;6.05;;;;;;;13.01;83.20;101510.44;5060596;28;20392;-56
2022/09/23 09:31:01;;;;;;;9.93;5.65;;;;;;;13.07;82.68;101508.56;5072854;28;20052;-52
2022/09/23 09:33:46;;;;;;;9.38;5.82;;;;;;;13.10;82.28;101508.84;5071344;28;20036;-56
2022/09/23 09:36:23;;;;;;;12.15;5.95;;;;;;;13.14;82.09;101504.50;5071318;28;20049;-51
2022/09/23 09:38:52;;;;;;;11.88;5.97;;;;;;;13.20;81.80;101503.44;5056995;28;20056;-53
2022/09/23 09:41:23;;;;;;;12.60;6.28;;;;;;;13.26;81.33;101506.19;5072474;28;20080;-54
2022/09/23 09:43:55;;;;;;;13.70;5.50;;;;;;;13.28;81.12;101498.56;5070168;28;20498;-58
2022/09/23 09:46:32;;;;;;;11.10;6.53;;;;;;;13.31;81.66;101492.53;5072744;28;20082;-55
2022/09/23 09:49:28;;;;;;;14.02;6.80;;;;;;;13.33;81.47;101487.63;5072740;28;20044;-52
2022/09/23 09:52:22;;;;;;;10.48;6.25;;;;;;;13.37;80.79;101492.28;5059570;28;20144;-53
2022/09/23 09:54:50;;;;;;;12.77;6.70;;;;;;;13.42;80.83;101484.09;5071593;28;20115;-52
2022/09/23 09:57:35;;;;;;;14.90;6.90;;;;;;;13.50;81.08;101485.47;5072269;28;20041;-54
2022/09/23 10:00:25;;;;;;;17.48;7.43;;;;;;;13.53;80.64;101484.09;5075019;28;20045;-56
2022/09/23 10:02:58;;;;;;;15.52;7.55;;;;;;;13.53;81.28;101489.56;5071149;28;20106;-60
2022/09/23 10:05:49;;;;;;;16.30;7.50;;;;;;;13.56;82.18;101484.34;5069561;28;20041;-56
2022/09/23 10:08:33;;;;;;;14.68;8.00;;;;;;;13.58;81.33;101487.66;5074354;28;20144;-53
2022/09/23 10:11:03;;;;;;;14.30;7.35;;;;;;;13.62;81.34;101483.28;5055410;28;20092;-54
2022/09/23 10:13:31;;;;;;;13.65;7.13;;;;;;;13.67;81.43;101487.13;5056214;28;20071;-53
2022/09/23 10:16:02;;;;;;;15.05;7.47;;;;;;;13.69;81.35;101485.75;5067043;28;20044;-51
2022/09/23 10:18:36;;;;;;;15.32;8.23;;;;;;;13.73;81.23;101484.09;5075860;28;20033;-54
2022/09/23 10:21:12;;;;;;;17.08;7.90;;;;;;;13.76;81.21;101485.50;5074878;28;20048;-52
2022/09/23 10:23:56;;;;;;;16.35;7.60;;;;;;;13.80;79.84;101478.34;5072404;28;20506;-52
2022/09/23 10:26:32;;;;;;;27.83;14.73;;;;;;;13.82;80.01;101476.16;5061186;28;20499;-56
2022/09/23 10:29:22;;;;;;;41.63;23.95;;;;;;;13.84;79.47;101476.72;5071782;28;20032;-54
2022/09/23 10:31:52;;;;;;;24.52;11.60;;;;;;;13.86;79.20;101482.75;5073198;28;20101;-59
2022/09/23 10:34:27;;;;;;;18.65;8.13;;;;;;;13.89;79.68;101482.19;5059923;28;20059;-58
2022/09/23 10:37:23;;;;;;;13.45;7.80;;;;;;;13.93;78.80;101477.00;5074652;28;20036;-54
2022/09/23 10:48:54;;;;;;;13.25;7.18;;;;;;;14.07;77.56;101473.44;5075377;28;20048;-57
2022/09/23 10:51:43;;;;;;;13.93;7.78;;;;;;;14.12;77.83;101471.75;5074490;28;20089;-53
2022/09/23 10:54:39;;;;;;;37.83;23.20;;;;;;;14.16;78.34;101467.38;5074785;28;20033;-55
2022/09/23 10:57:36;;;;;;;32.28;19.58;;;;;;;14.19;78.29;101470.41;5075485;28;20041;-54
2022/09/23 11:00:22;;;;;;;16.38;8.48;;;;;;;14.21;77.94;101465.44;5075404;28;20047;-55
2022/09/23 11:03:11;;;;;;;84.13;43.53;;;;;;;14.26;77.97;101470.94;5069386;28;20347;-55
2022/09/23 11:06:01;;;;;;;57.67;35.25;;;;;;;14.28;77.09;101468.72;5068289;28;20028;-53
2022/09/23 11:08:38;;;;;;;20.17;12.00;;;;;;;14.31;76.50;101467.38;5074845;28;20060;-55
2022/09/23 11:11:34;;;;;;;16.80;9.38;;;;;;;14.32;76.33;101460.78;5073853;28;20044;-54
2022/09/23 11:14:24;;;;;;;23.45;13.52;;;;;;;14.37;76.36;101471.72;5073283;28;20516;-53
2022/09/23 11:17:06;;;;;;;17.02;8.82;;;;;;;14.41;76.02;101463.78;5073920;28;20452;-55
2022/09/23 11:19:51;;;;;;;22.05;12.65;;;;;;;14.44;75.80;101461.28;5075151;28;20045;-51
2022/09/23 11:22:37;;;;;;;14.27;8.10;;;;;;;14.48;74.70;101459.66;5070004;28;20495;-51
2022/09/23 11:25:24;;;;;;;;;;;;;;;14.53;74.55;101463.44;5063414;28;20049;-56
2022/09/23 11:28:33;;;;;;;53.85;31.70;;;;;;;14.61;74.86;101461.00;5061281;28;20384;-54
2022/09/23 11:31:09;;;;;;;34.90;20.48;;;;;;;14.64;74.52;101459.63;5068729;28;20053;-55
2022/09/23 11:34:08;;;;;;;14.80;9.10;;;;;;;14.67;74.32;101457.16;5068427;28;20446;-53
2022/09/23 11:37:03;;;;;;;19.40;11.50;;;;;;;14.70;73.11;101450.28;5072730;28;20045;-52
2022/09/23 11:39:41;;;;;;;30.70;17.17;;;;;;;14.72;73.24;101445.34;5073301;28;20040;-53
2022/09/23 11:42:18;;;;;;;36.78;22.08;;;;;;;14.76;73.20;101446.41;5073698;28;20044;-54
2022/09/23 11:44:57;;;;;;;37.75;21.90;;;;;;;14.77;72.95;101448.06;5073106;28;20082;-52
2022/09/23 11:47:29;;;;;;;74.18;40.15;;;;;;;14.82;73.03;101441.72;5071657;28;20043;-54
2022/09/23 11:50:24;;;;;;;29.33;17.65;;;;;;;14.82;72.20;101439.81;5073701;28;20048;-52
2022/09/23 11:53:20;;;;;;;23.38;13.55;;;;;;;14.83;71.76;101435.94;5073381;28;20089;-57
2022/09/23 11:56:16;;;;;;;19.20;10.30;;;;;;;14.85;71.88;101433.75;5063375;28;20047;-53
2022/09/23 11:59:14;;;;;;;33.33;19.75;;;;;;;14.91;71.70;101429.88;5073855;28;20045;-54
2022/09/23 12:01:50;;;;;;;18.13;9.57;;;;;;;14.96;71.24;101433.69;5070989;28;20468;-54
2022/09/23 12:04:43;;;;;;;16.38;8.52;;;;;;;15.01;71.20;101425.41;5074099;28;20402;-55
2022/09/23 12:07:28;;;;;;;32.72;17.30;;;;;;;15.07;70.92;101424.31;5073080;28;20101;-54
2022/09/23 12:10:08;;;;;;;14.75;7.65;;;;;;;15.09;69.81;101422.09;5073675;28;20145;-53
2022/09/23 12:12:40;;;;;;;38.70;20.63;;;;;;;15.11;70.52;101420.72;5071449;28;20041;-55